sensor_id;sensor_type;location;lat;lon;timestamp;temperature;humidity
939;DHT22;456;53.584;9.968;2023-08-20T00:00:29;18.60;54.10
939;DHT22;456;53.584;9.968;2023-08-20T00:03:12;18.60;54.10
939;DHT22;456;53.584;9.968;2023-08-20T00:05:39;18.60;54.20
939;DHT22;456;53.584;9.968;2023-08-20T00:08:05;18.60;54.10
939;DHT22;456;53.584;9.968;2023-08-20T00:10:31;18.60;54.20
939;DHT22;456;53.584;9.968;2023-08-20T00:12:57;18.60;54.10
939;DHT22;456;53.584;9.968;2023-08-20T00:15:23;18.60;54.10
939;DHT22;456;53.584;9.968;2023-08-20T00:17:52;18.60;54.20
939;DHT22;456;53.584;9.968;2023-08-20T00:20:19;18.60;54.20
939;DHT22;456;53.584;9.968;2023-08-20T00:22:45;18.60;54.20
939;DHT22;456;53.584;9.968;2023-08-20T00:25:16;18.60;54.20
939;DHT22;456;53.584;9.968;2023-08-20T00:27:42;18.60;54.30
939;DHT22;456;53.584;9.968;2023-08-20T00:30:11;18.60;54.20
939;DHT22;456;53.584;9.968;2023-08-20T00:32:37;18.60;54.30
939;DHT22;456;53.584;9.968;2023-08-20T00:35:03;18.60;54.30
939;DHT22;456;53.584;9.968;2023-08-20T00:37:30;18.60;54.30
939;DHT22;456;53.584;9.968;2023-08-20T00:39:56;18.60;54.30
939;DHT22;456;53.584;9.968;2023-08-20T00:42:23;18.60;54.40
939;DHT22;456;53.584;9.968;2023-08-20T00:44:51;18.60;54.40
939;DHT22;456;53.584;9.968;2023-08-20T00:47:18;18.60;54.40
939;DHT22;456;53.584;9.968;2023-08-20T00:49:43;18.60;54.40
939;DHT22;456;53.584;9.968;2023-08-20T00:52:11;18.60;55.10
939;DHT22;456;53.584;9.968;2023-08-20T00:54:39;18.60;54.40
939;DHT22;456;53.584;9.968;2023-08-20T00:57:06;18.60;54.40
939;DHT22;456;53.584;9.968;2023-08-20T00:59:34;18.60;54.40
939;DHT22;456;53.584;9.968;2023-08-20T01:02:00;18.60;54.50
939;DHT22;456;53.584;9.968;2023-08-20T01:04:27;18.60;54.40
939;DHT22;456;53.584;9.968;2023-08-20T01:07:29;18.60;54.50
939;DHT22;456;53.584;9.968;2023-08-20T01:10:04;18.60;54.50
939;DHT22;456;53.584;9.968;2023-08-20T01:12:31;18.60;54.50
939;DHT22;456;53.584;9.968;2023-08-20T01:14:59;18.60;54.50
939;DHT22;456;53.584;9.968;2023-08-20T01:17:25;18.60;54.50
939;DHT22;456;53.584;9.968;2023-08-20T01:19:50;18.60;54.40
939;DHT22;456;53.584;9.968;2023-08-20T01:30:51;18.60;54.50
939;DHT22;456;53.584;9.968;2023-08-20T01:33:19;18.60;54.40
939;DHT22;456;53.584;9.968;2023-08-20T01:35:44;18.60;54.50
939;DHT22;456;53.584;9.968;2023-08-20T01:38:10;18.60;54.40
939;DHT22;456;53.584;9.968;2023-08-20T01:40:36;18.60;54.80
939;DHT22;456;53.584;9.968;2023-08-20T01:43:01;18.60;55.10
939;DHT22;456;53.584;9.968;2023-08-20T01:45:27;18.60;54.40
939;DHT22;456;53.584;9.968;2023-08-20T01:47:52;18.60;54.40
939;DHT22;456;53.584;9.968;2023-08-20T01:50:18;18.60;54.50
939;DHT22;456;53.584;9.968;2023-08-20T01:52:44;18.60;54.50
939;DHT22;456;53.584;9.968;2023-08-20T01:55:10;18.60;54.50
939;DHT22;456;53.584;9.968;2023-08-20T01:57:36;18.60;54.50
939;DHT22;456;53.584;9.968;2023-08-20T02:00:02;18.60;54.60
939;DHT22;456;53.584;9.968;2023-08-20T02:02:30;18.60;54.60
939;DHT22;456;53.584;9.968;2023-08-20T02:04:56;18.60;54.60
939;DHT22;456;53.584;9.968;2023-08-20T02:07:21;18.60;54.60
939;DHT22;456;53.584;9.968;2023-08-20T02:09:47;18.60;54.70
939;DHT22;456;53.584;9.968;2023-08-20T02:12:12;18.60;54.60
939;DHT22;456;53.584;9.968;2023-08-20T02:14:38;18.60;54.70
939;DHT22;456;53.584;9.968;2023-08-20T02:17:04;18.60;54.70
939;DHT22;456;53.584;9.968;2023-08-20T02:19:30;18.60;54.70
939;DHT22;456;53.584;9.968;2023-08-20T02:21:55;18.60;54.80
939;DHT22;456;53.584;9.968;2023-08-20T02:24:21;18.60;54.80
939;DHT22;456;53.584;9.968;2023-08-20T02:26:46;18.60;54.80
939;DHT22;456;53.584;9.968;2023-08-20T02:29:12;18.60;54.80
939;DHT22;456;53.584;9.968;2023-08-20T02:31:38;18.60;54.90
939;DHT22;456;53.584;9.968;2023-08-20T02:34:03;18.60;54.90
939;DHT22;456;53.584;9.968;2023-08-20T02:36:29;18.60;54.80
939;DHT22;456;53.584;9.968;2023-08-20T02:38:54;18.60;54.80
939;DHT22;456;53.584;9.968;2023-08-20T02:41:20;18.60;54.90
939;DHT22;456;53.584;9.968;2023-08-20T02:43:46;18.60;54.90
939;DHT22;456;53.584;9.968;2023-08-20T02:46:11;18.60;55.00
939;DHT22;456;53.584;9.968;2023-08-20T02:48:37;18.60;55.00
939;DHT22;456;53.584;9.968;2023-08-20T02:51:03;18.60;55.00
939;DHT22;456;53.584;9.968;2023-08-20T02:53:29;18.60;55.00
939;DHT22;456;53.584;9.968;2023-08-20T02:55:54;18.60;55.00
939;DHT22;456;53.584;9.968;2023-08-20T02:58:20;18.60;54.90
939;DHT22;456;53.584;9.968;2023-08-20T03:00:45;18.60;55.00
939;DHT22;456;53.584;9.968;2023-08-20T03:03:11;18.60;54.90
939;DHT22;456;53.584;9.968;2023-08-20T03:05:37;18.60;55.00
939;DHT22;456;53.584;9.968;2023-08-20T03:08:04;18.60;55.20
939;DHT22;456;53.584;9.968;2023-08-20T03:10:30;18.60;55.10
939;DHT22;456;53.584;9.968;2023-08-20T03:12:57;18.60;55.10
939;DHT22;456;53.584;9.968;2023-08-20T03:15:23;18.60;55.10
939;DHT22;456;53.584;9.968;2023-08-20T03:17:49;18.60;55.10
939;DHT22;456;53.584;9.968;2023-08-20T03:20:14;18.60;55.20
939;DHT22;456;53.584;9.968;2023-08-20T03:22:40;18.60;55.20
939;DHT22;456;53.584;9.968;2023-08-20T03:25:06;18.60;55.20
939;DHT22;456;53.584;9.968;2023-08-20T03:27:31;18.60;55.10
939;DHT22;456;53.584;9.968;2023-08-20T03:29:57;18.60;55.20
939;DHT22;456;53.584;9.968;2023-08-20T03:32:23;18.60;55.20
939;DHT22;456;53.584;9.968;2023-08-20T03:34:49;18.60;55.20
939;DHT22;456;53.584;9.968;2023-08-20T03:37:15;18.60;55.20
939;DHT22;456;53.584;9.968;2023-08-20T03:39:41;18.60;55.20
939;DHT22;456;53.584;9.968;2023-08-20T03:42:07;18.60;55.20
939;DHT22;456;53.584;9.968;2023-08-20T03:44:32;18.60;55.10
939;DHT22;456;53.584;9.968;2023-08-20T03:46:58;18.60;55.00
939;DHT22;456;53.584;9.968;2023-08-20T03:49:23;18.60;55.00
939;DHT22;456;53.584;9.968;2023-08-20T03:51:49;18.60;55.10
939;DHT22;456;53.584;9.968;2023-08-20T03:54:14;18.60;55.20
939;DHT22;456;53.584;9.968;2023-08-20T03:56:40;18.60;55.20
939;DHT22;456;53.584;9.968;2023-08-20T03:59:06;18.60;55.20
939;DHT22;456;53.584;9.968;2023-08-20T04:01:31;18.60;55.20
939;DHT22;456;53.584;9.968;2023-08-20T04:03:57;18.60;55.20
939;DHT22;456;53.584;9.968;2023-08-20T04:06:23;18.60;55.20
939;DHT22;456;53.584;9.968;2023-08-20T04:08:48;18.60;55.20
939;DHT22;456;53.584;9.968;2023-08-20T04:11:14;18.60;55.20
939;DHT22;456;53.584;9.968;2023-08-20T04:13:40;18.60;55.20
939;DHT22;456;53.584;9.968;2023-08-20T04:16:08;18.60;55.20
939;DHT22;456;53.584;9.968;2023-08-20T04:18:34;18.60;55.20
939;DHT22;456;53.584;9.968;2023-08-20T04:20:59;18.60;55.20
939;DHT22;456;53.584;9.968;2023-08-20T04:23:25;18.60;55.20
939;DHT22;456;53.584;9.968;2023-08-20T04:25:50;18.60;55.20
939;DHT22;456;53.584;9.968;2023-08-20T04:28:16;18.60;55.20
939;DHT22;456;53.584;9.968;2023-08-20T04:30:42;18.60;55.20
939;DHT22;456;53.584;9.968;2023-08-20T04:33:07;18.60;55.20
939;DHT22;456;53.584;9.968;2023-08-20T04:35:33;18.60;55.20
939;DHT22;456;53.584;9.968;2023-08-20T04:37:59;18.60;55.20
939;DHT22;456;53.584;9.968;2023-08-20T04:40:24;18.60;55.20
939;DHT22;456;53.584;9.968;2023-08-20T04:42:51;18.60;55.20
939;DHT22;456;53.584;9.968;2023-08-20T04:45:17;18.60;55.20
939;DHT22;456;53.584;9.968;2023-08-20T04:47:47;18.60;55.20
939;DHT22;456;53.584;9.968;2023-08-20T04:50:13;18.60;55.20
939;DHT22;456;53.584;9.968;2023-08-20T04:52:39;18.60;55.20
939;DHT22;456;53.584;9.968;2023-08-20T04:55:05;18.60;55.20
939;DHT22;456;53.584;9.968;2023-08-20T04:57:35;18.60;55.20
939;DHT22;456;53.584;9.968;2023-08-20T05:00:00;18.60;55.20
939;DHT22;456;53.584;9.968;2023-08-20T05:02:26;18.60;55.20
939;DHT22;456;53.584;9.968;2023-08-20T05:04:52;18.60;55.20
939;DHT22;456;53.584;9.968;2023-08-20T05:07:17;18.60;55.20
939;DHT22;456;53.584;9.968;2023-08-20T05:09:43;18.60;55.20
939;DHT22;456;53.584;9.968;2023-08-20T05:12:09;18.60;55.20
939;DHT22;456;53.584;9.968;2023-08-20T05:14:35;18.60;55.20
939;DHT22;456;53.584;9.968;2023-08-20T05:17:00;18.60;55.20
939;DHT22;456;53.584;9.968;2023-08-20T05:19:26;18.60;55.20
939;DHT22;456;53.584;9.968;2023-08-20T05:21:52;18.60;55.20
939;DHT22;456;53.584;9.968;2023-08-20T05:24:24;18.60;55.20
939;DHT22;456;53.584;9.968;2023-08-20T05:27:12;18.60;55.20
939;DHT22;456;53.584;9.968;2023-08-20T05:29:40;18.60;55.20
939;DHT22;456;53.584;9.968;2023-08-20T05:32:07;18.60;55.20
939;DHT22;456;53.584;9.968;2023-08-20T05:34:32;18.60;55.20
939;DHT22;456;53.584;9.968;2023-08-20T05:36:58;18.60;55.20
939;DHT22;456;53.584;9.968;2023-08-20T05:39:24;18.60;55.80
939;DHT22;456;53.584;9.968;2023-08-20T05:41:54;18.60;55.20
939;DHT22;456;53.584;9.968;2023-08-20T05:44:20;18.60;55.20
939;DHT22;456;53.584;9.968;2023-08-20T05:46:46;18.60;55.20
939;DHT22;456;53.584;9.968;2023-08-20T05:49:13;18.60;55.20
939;DHT22;456;53.584;9.968;2023-08-20T05:51:39;18.60;55.20
939;DHT22;456;53.584;9.968;2023-08-20T05:54:04;18.60;55.20
939;DHT22;456;53.584;9.968;2023-08-20T05:56:30;18.60;55.20
939;DHT22;456;53.584;9.968;2023-08-20T05:58:55;18.60;55.20
939;DHT22;456;53.584;9.968;2023-08-20T06:01:21;18.60;55.20
939;DHT22;456;53.584;9.968;2023-08-20T06:03:47;18.60;55.20
939;DHT22;456;53.584;9.968;2023-08-20T06:06:12;18.60;55.90
939;DHT22;456;53.584;9.968;2023-08-20T06:08:38;18.60;55.20
939;DHT22;456;53.584;9.968;2023-08-20T06:11:03;18.60;55.20
939;DHT22;456;53.584;9.968;2023-08-20T06:13:29;18.60;55.20
939;DHT22;456;53.584;9.968;2023-08-20T06:15:54;18.60;55.20
939;DHT22;456;53.584;9.968;2023-08-20T06:18:20;18.60;55.20
939;DHT22;456;53.584;9.968;2023-08-20T06:20:45;18.60;55.20
939;DHT22;456;53.584;9.968;2023-08-20T06:23:11;18.60;55.20
939;DHT22;456;53.584;9.968;2023-08-20T06:25:38;18.60;55.20
939;DHT22;456;53.584;9.968;2023-08-20T06:28:04;18.60;55.20
939;DHT22;456;53.584;9.968;2023-08-20T06:30:30;18.60;55.20
939;DHT22;456;53.584;9.968;2023-08-20T06:32:55;18.60;55.20
939;DHT22;456;53.584;9.968;2023-08-20T06:35:21;18.60;55.20
939;DHT22;456;53.584;9.968;2023-08-20T06:37:46;18.60;55.20
939;DHT22;456;53.584;9.968;2023-08-20T06:40:12;18.60;55.20
939;DHT22;456;53.584;9.968;2023-08-20T06:42:39;18.60;55.20
939;DHT22;456;53.584;9.968;2023-08-20T06:45:05;18.60;55.20
939;DHT22;456;53.584;9.968;2023-08-20T06:47:31;18.60;55.20
939;DHT22;456;53.584;9.968;2023-08-20T06:49:56;18.60;55.20
939;DHT22;456;53.584;9.968;2023-08-20T06:52:22;18.60;55.20
939;DHT22;456;53.584;9.968;2023-08-20T06:54:47;18.60;55.20
939;DHT22;456;53.584;9.968;2023-08-20T06:57:13;18.60;55.20
939;DHT22;456;53.584;9.968;2023-08-20T06:59:38;18.60;55.20
939;DHT22;456;53.584;9.968;2023-08-20T07:02:04;18.60;55.20
939;DHT22;456;53.584;9.968;2023-08-20T07:04:30;18.60;55.30
939;DHT22;456;53.584;9.968;2023-08-20T07:06:55;18.60;55.20
939;DHT22;456;53.584;9.968;2023-08-20T07:09:21;18.60;55.20
939;DHT22;456;53.584;9.968;2023-08-20T07:11:46;18.60;55.20
939;DHT22;456;53.584;9.968;2023-08-20T07:14:12;18.60;55.20
939;DHT22;456;53.584;9.968;2023-08-20T07:16:37;18.60;55.20
939;DHT22;456;53.584;9.968;2023-08-20T07:19:03;18.60;55.20
939;DHT22;456;53.584;9.968;2023-08-20T07:21:29;18.60;55.20
939;DHT22;456;53.584;9.968;2023-08-20T07:23:54;18.60;55.20
939;DHT22;456;53.584;9.968;2023-08-20T07:26:20;18.60;55.20
939;DHT22;456;53.584;9.968;2023-08-20T07:28:45;18.60;55.20
939;DHT22;456;53.584;9.968;2023-08-20T07:31:33;18.60;55.20
939;DHT22;456;53.584;9.968;2023-08-20T07:34:00;18.60;55.20
939;DHT22;456;53.584;9.968;2023-08-20T07:36:26;18.60;55.20
939;DHT22;456;53.584;9.968;2023-08-20T07:38:53;18.60;55.20
939;DHT22;456;53.584;9.968;2023-08-20T07:41:19;18.60;55.20
939;DHT22;456;53.584;9.968;2023-08-20T07:43:46;18.60;55.20
939;DHT22;456;53.584;9.968;2023-08-20T07:46:12;18.60;55.20
939;DHT22;456;53.584;9.968;2023-08-20T07:48:38;18.60;55.20
939;DHT22;456;53.584;9.968;2023-08-20T07:51:04;18.60;55.20
939;DHT22;456;53.584;9.968;2023-08-20T07:53:30;18.60;55.20
939;DHT22;456;53.584;9.968;2023-08-20T07:55:56;18.60;55.20
939;DHT22;456;53.584;9.968;2023-08-20T07:58:22;18.60;55.20
939;DHT22;456;53.584;9.968;2023-08-20T08:00:47;18.60;55.20
939;DHT22;456;53.584;9.968;2023-08-20T08:03:13;18.60;55.20
939;DHT22;456;53.584;9.968;2023-08-20T08:05:41;18.60;55.20
939;DHT22;456;53.584;9.968;2023-08-20T08:08:06;18.70;54.00
939;DHT22;456;53.584;9.968;2023-08-20T08:10:32;18.80;52.60
939;DHT22;456;53.584;9.968;2023-08-20T08:12:57;18.80;53.70
939;DHT22;456;53.584;9.968;2023-08-20T08:15:23;18.90;51.60
939;DHT22;456;53.584;9.968;2023-08-20T08:17:48;18.90;52.90
939;DHT22;456;53.584;9.968;2023-08-20T08:20:14;18.90;52.10
939;DHT22;456;53.584;9.968;2023-08-20T08:22:40;18.90;52.40
939;DHT22;456;53.584;9.968;2023-08-20T08:25:06;18.90;53.00
939;DHT22;456;53.584;9.968;2023-08-20T08:27:31;19.00;51.10
939;DHT22;456;53.584;9.968;2023-08-20T08:29:57;19.00;52.50
939;DHT22;456;53.584;9.968;2023-08-20T08:32:23;18.90;52.40
939;DHT22;456;53.584;9.968;2023-08-20T08:34:49;19.00;51.50
939;DHT22;456;53.584;9.968;2023-08-20T08:37:14;18.90;52.00
939;DHT22;456;53.584;9.968;2023-08-20T08:39:41;19.00;51.80
939;DHT22;456;53.584;9.968;2023-08-20T08:42:07;19.00;51.80
939;DHT22;456;53.584;9.968;2023-08-20T08:44:34;18.90;52.00
939;DHT22;456;53.584;9.968;2023-08-20T08:47:02;19.00;51.10
939;DHT22;456;53.584;9.968;2023-08-20T08:49:27;19.00;51.80
939;DHT22;456;53.584;9.968;2023-08-20T08:51:56;18.90;52.20
939;DHT22;456;53.584;9.968;2023-08-20T08:54:23;19.00;51.90
939;DHT22;456;53.584;9.968;2023-08-20T08:56:50;18.90;51.70
939;DHT22;456;53.584;9.968;2023-08-20T08:59:15;18.90;52.10
939;DHT22;456;53.584;9.968;2023-08-20T09:01:41;19.00;51.70
939;DHT22;456;53.584;9.968;2023-08-20T09:04:07;19.00;51.40
939;DHT22;456;53.584;9.968;2023-08-20T09:06:49;18.90;51.90
939;DHT22;456;53.584;9.968;2023-08-20T09:09:17;19.00;52.00
939;DHT22;456;53.584;9.968;2023-08-20T09:11:43;19.00;51.40
939;DHT22;456;53.584;9.968;2023-08-20T09:14:24;19.00;51.70
939;DHT22;456;53.584;9.968;2023-08-20T09:16:57;19.00;52.20
939;DHT22;456;53.584;9.968;2023-08-20T09:19:24;19.00;51.20
939;DHT22;456;53.584;9.968;2023-08-20T09:21:49;19.00;51.70
939;DHT22;456;53.584;9.968;2023-08-20T09:24:25;18.90;52.30
939;DHT22;456;53.584;9.968;2023-08-20T09:26:57;19.00;51.10
939;DHT22;456;53.584;9.968;2023-08-20T09:29:23;19.00;51.70
939;DHT22;456;53.584;9.968;2023-08-20T09:31:49;18.90;52.30
939;DHT22;456;53.584;9.968;2023-08-20T09:34:15;19.00;51.10
939;DHT22;456;53.584;9.968;2023-08-20T09:36:40;19.00;52.10
939;DHT22;456;53.584;9.968;2023-08-20T09:39:06;18.90;52.10
939;DHT22;456;53.584;9.968;2023-08-20T09:41:33;19.00;51.10
939;DHT22;456;53.584;9.968;2023-08-20T09:44:01;19.00;51.40
939;DHT22;456;53.584;9.968;2023-08-20T09:46:31;19.00;52.30
939;DHT22;456;53.584;9.968;2023-08-20T09:48:58;19.00;51.10
939;DHT22;456;53.584;9.968;2023-08-20T09:51:26;19.00;51.10
939;DHT22;456;53.584;9.968;2023-08-20T09:54:28;19.00;51.80
939;DHT22;456;53.584;9.968;2023-08-20T09:57:00;19.00;51.50
939;DHT22;456;53.584;9.968;2023-08-20T09:59:29;19.00;51.50
939;DHT22;456;53.584;9.968;2023-08-20T10:01:55;19.00;51.90
939;DHT22;456;53.584;9.968;2023-08-20T10:04:22;19.00;51.20
939;DHT22;456;53.584;9.968;2023-08-20T10:06:49;19.00;51.10
939;DHT22;456;53.584;9.968;2023-08-20T10:09:16;19.00;51.60
939;DHT22;456;53.584;9.968;2023-08-20T10:11:43;19.00;51.90
939;DHT22;456;53.584;9.968;2023-08-20T10:14:09;19.00;51.10
939;DHT22;456;53.584;9.968;2023-08-20T10:16:34;19.00;51.30
939;DHT22;456;53.584;9.968;2023-08-20T10:19:05;19.00;52.40
939;DHT22;456;53.584;9.968;2023-08-20T10:21:32;19.10;51.20
939;DHT22;456;53.584;9.968;2023-08-20T10:24:03;19.00;51.70
939;DHT22;456;53.584;9.968;2023-08-20T10:26:29;19.00;52.00
939;DHT22;456;53.584;9.968;2023-08-20T10:31:58;19.00;51.10
939;DHT22;456;53.584;9.968;2023-08-20T10:34:36;19.00;52.00
939;DHT22;456;53.584;9.968;2023-08-20T10:37:10;19.10;51.20
939;DHT22;456;53.584;9.968;2023-08-20T10:39:36;19.00;51.40
939;DHT22;456;53.584;9.968;2023-08-20T10:42:09;19.00;51.60
939;DHT22;456;53.584;9.968;2023-08-20T10:44:58;19.00;51.10
939;DHT22;456;53.584;9.968;2023-08-20T10:47:24;19.00;51.10
939;DHT22;456;53.584;9.968;2023-08-20T10:49:54;19.00;51.90
939;DHT22;456;53.584;9.968;2023-08-20T10:52:22;19.00;51.20
939;DHT22;456;53.584;9.968;2023-08-20T10:54:50;19.00;51.10
939;DHT22;456;53.584;9.968;2023-08-20T10:57:16;19.00;51.10
939;DHT22;456;53.584;9.968;2023-08-20T10:59:42;19.00;52.10
939;DHT22;456;53.584;9.968;2023-08-20T11:02:14;19.10;51.20
939;DHT22;456;53.584;9.968;2023-08-20T11:04:40;19.00;51.10
939;DHT22;456;53.584;9.968;2023-08-20T11:07:06;19.00;51.30
939;DHT22;456;53.584;9.968;2023-08-20T11:09:33;19.00;51.10
939;DHT22;456;53.584;9.968;2023-08-20T11:11:59;19.00;51.10
939;DHT22;456;53.584;9.968;2023-08-20T11:14:25;19.00;51.10
939;DHT22;456;53.584;9.968;2023-08-20T11:16:51;19.00;51.90
939;DHT22;456;53.584;9.968;2023-08-20T11:19:20;19.10;51.20
939;DHT22;456;53.584;9.968;2023-08-20T11:21:47;19.00;51.50
939;DHT22;456;53.584;9.968;2023-08-20T11:24:13;19.00;51.70
939;DHT22;456;53.584;9.968;2023-08-20T11:26:39;19.00;51.10
939;DHT22;456;53.584;9.968;2023-08-20T11:29:07;19.00;51.10
939;DHT22;456;53.584;9.968;2023-08-20T11:31:33;19.00;51.10
939;DHT22;456;53.584;9.968;2023-08-20T11:33:58;19.00;51.80
939;DHT22;456;53.584;9.968;2023-08-20T11:36:24;19.00;51.10
939;DHT22;456;53.584;9.968;2023-08-20T11:38:50;19.00;51.40
939;DHT22;456;53.584;9.968;2023-08-20T11:41:18;18.90;51.60
939;DHT22;456;53.584;9.968;2023-08-20T11:43:44;19.10;51.30
939;DHT22;456;53.584;9.968;2023-08-20T11:46:13;19.10;51.20
939;DHT22;456;53.584;9.968;2023-08-20T11:51:23;19.00;51.10
939;DHT22;456;53.584;9.968;2023-08-20T11:53:49;19.10;51.20
939;DHT22;456;53.584;9.968;2023-08-20T11:56:15;19.00;51.10
939;DHT22;456;53.584;9.968;2023-08-20T11:58:40;19.00;51.60
939;DHT22;456;53.584;9.968;2023-08-20T12:01:08;19.10;50.70
939;DHT22;456;53.584;9.968;2023-08-20T12:03:36;19.10;51.30
939;DHT22;456;53.584;9.968;2023-08-20T12:06:20;19.00;51.60
939;DHT22;456;53.584;9.968;2023-08-20T12:08:46;19.00;51.20
939;DHT22;456;53.584;9.968;2023-08-20T12:11:13;19.00;51.10
939;DHT22;456;53.584;9.968;2023-08-20T12:13:38;19.00;51.10
939;DHT22;456;53.584;9.968;2023-08-20T12:16:04;19.00;51.70
939;DHT22;456;53.584;9.968;2023-08-20T12:18:30;19.10;50.80
939;DHT22;456;53.584;9.968;2023-08-20T12:20:56;19.00;51.10
939;DHT22;456;53.584;9.968;2023-08-20T12:23:22;19.00;51.40
939;DHT22;456;53.584;9.968;2023-08-20T12:25:51;19.00;51.40
939;DHT22;456;53.584;9.968;2023-08-20T12:28:17;19.10;51.10
939;DHT22;456;53.584;9.968;2023-08-20T12:30:43;19.10;51.20
939;DHT22;456;53.584;9.968;2023-08-20T12:33:09;19.00;51.10
939;DHT22;456;53.584;9.968;2023-08-20T12:35:36;19.00;51.10
939;DHT22;456;53.584;9.968;2023-08-20T12:38:02;19.10;50.70
939;DHT22;456;53.584;9.968;2023-08-20T12:40:28;19.10;51.20
939;DHT22;456;53.584;9.968;2023-08-20T12:42:54;19.00;51.70
939;DHT22;456;53.584;9.968;2023-08-20T12:45:20;19.10;50.40
939;DHT22;456;53.584;9.968;2023-08-20T12:47:45;19.00;51.10
939;DHT22;456;53.584;9.968;2023-08-20T12:50:11;19.00;51.10
939;DHT22;456;53.584;9.968;2023-08-20T12:52:38;19.00;51.10
939;DHT22;456;53.584;9.968;2023-08-20T12:55:04;19.10;50.60
939;DHT22;456;53.584;9.968;2023-08-20T12:57:33;19.10;51.20
939;DHT22;456;53.584;9.968;2023-08-20T13:00:00;19.00;51.20
939;DHT22;456;53.584;9.968;2023-08-20T13:02:26;19.10;50.90
939;DHT22;456;53.584;9.968;2023-08-20T13:04:52;19.10;50.60
939;DHT22;456;53.584;9.968;2023-08-20T13:07:17;19.10;51.20
939;DHT22;456;53.584;9.968;2023-08-20T13:09:43;19.00;51.30
939;DHT22;456;53.584;9.968;2023-08-20T13:12:10;19.10;50.00
939;DHT22;456;53.584;9.968;2023-08-20T13:14:38;19.10;51.00
939;DHT22;456;53.584;9.968;2023-08-20T13:17:05;19.00;51.10
939;DHT22;456;53.584;9.968;2023-08-20T13:19:30;19.00;51.10
939;DHT22;456;53.584;9.968;2023-08-20T13:21:56;19.10;49.90
939;DHT22;456;53.584;9.968;2023-08-20T13:24:22;19.20;51.30
939;DHT22;456;53.584;9.968;2023-08-20T13:26:47;19.10;51.20
939;DHT22;456;53.584;9.968;2023-08-20T13:29:13;19.00;51.80
939;DHT22;456;53.584;9.968;2023-08-20T13:31:38;19.10;50.30
939;DHT22;456;53.584;9.968;2023-08-20T13:34:04;19.10;51.20
939;DHT22;456;53.584;9.968;2023-08-20T13:36:29;19.00;51.10
939;DHT22;456;53.584;9.968;2023-08-20T13:38:55;19.00;50.80
939;DHT22;456;53.584;9.968;2023-08-20T13:41:21;19.10;50.20
939;DHT22;456;53.584;9.968;2023-08-20T13:43:47;19.10;50.80
939;DHT22;456;53.584;9.968;2023-08-20T13:46:12;19.00;51.10
939;DHT22;456;53.584;9.968;2023-08-20T13:48:38;19.10;50.30
939;DHT22;456;53.584;9.968;2023-08-20T13:51:03;19.10;50.80
939;DHT22;456;53.584;9.968;2023-08-20T13:53:29;19.10;51.20
939;DHT22;456;53.584;9.968;2023-08-20T13:55:55;19.00;51.20
939;DHT22;456;53.584;9.968;2023-08-20T13:58:20;19.10;49.80
939;DHT22;456;53.584;9.968;2023-08-20T14:00:46;19.10;50.90
939;DHT22;456;53.584;9.968;2023-08-20T14:03:12;19.10;51.20
939;DHT22;456;53.584;9.968;2023-08-20T14:05:37;19.00;51.20
939;DHT22;456;53.584;9.968;2023-08-20T14:08:03;19.10;50.30
939;DHT22;456;53.584;9.968;2023-08-20T14:10:29;19.10;51.10
939;DHT22;456;53.584;9.968;2023-08-20T14:12:54;19.00;51.10
939;DHT22;456;53.584;9.968;2023-08-20T14:15:20;19.00;51.10
939;DHT22;456;53.584;9.968;2023-08-20T14:17:46;19.10;49.80
939;DHT22;456;53.584;9.968;2023-08-20T14:20:11;19.10;50.70
939;DHT22;456;53.584;9.968;2023-08-20T14:22:38;19.00;51.10
939;DHT22;456;53.584;9.968;2023-08-20T14:25:04;19.10;50.60
939;DHT22;456;53.584;9.968;2023-08-20T14:27:30;19.10;50.00
939;DHT22;456;53.584;9.968;2023-08-20T14:29:56;19.10;50.60
939;DHT22;456;53.584;9.968;2023-08-20T14:32:21;19.00;51.10
939;DHT22;456;53.584;9.968;2023-08-20T14:34:47;19.00;50.50
939;DHT22;456;53.584;9.968;2023-08-20T14:37:12;19.10;50.30
939;DHT22;456;53.584;9.968;2023-08-20T14:39:39;19.00;50.80
939;DHT22;456;53.584;9.968;2023-08-20T14:42:04;19.00;51.10
939;DHT22;456;53.584;9.968;2023-08-20T14:44:30;19.10;50.70
939;DHT22;456;53.584;9.968;2023-08-20T14:46:56;19.10;50.60
939;DHT22;456;53.584;9.968;2023-08-20T14:49:21;19.10;51.20
939;DHT22;456;53.584;9.968;2023-08-20T14:51:47;19.00;51.10
939;DHT22;456;53.584;9.968;2023-08-20T14:54:13;19.10;50.20
939;DHT22;456;53.584;9.968;2023-08-20T14:56:39;19.10;50.70
939;DHT22;456;53.584;9.968;2023-08-20T14:59:05;19.10;51.20
939;DHT22;456;53.584;9.968;2023-08-20T15:01:30;19.00;51.10
939;DHT22;456;53.584;9.968;2023-08-20T15:03:56;19.20;50.00
939;DHT22;456;53.584;9.968;2023-08-20T15:06:21;19.10;50.80
939;DHT22;456;53.584;9.968;2023-08-20T15:08:49;19.10;50.90
939;DHT22;456;53.584;9.968;2023-08-20T15:11:14;19.00;51.10
939;DHT22;456;53.584;9.968;2023-08-20T15:13:40;19.10;49.90
939;DHT22;456;53.584;9.968;2023-08-20T15:16:05;19.10;50.80
939;DHT22;456;53.584;9.968;2023-08-20T15:18:31;19.10;51.20
939;DHT22;456;53.584;9.968;2023-08-20T15:20:57;19.00;51.10
939;DHT22;456;53.584;9.968;2023-08-20T15:23:28;19.20;49.80
939;DHT22;456;53.584;9.968;2023-08-20T15:25:54;19.10;50.40
939;DHT22;456;53.584;9.968;2023-08-20T15:28:21;19.10;51.00
939;DHT22;456;53.584;9.968;2023-08-20T15:30:48;19.00;50.70
939;DHT22;456;53.584;9.968;2023-08-20T15:33:14;19.10;49.80
939;DHT22;456;53.584;9.968;2023-08-20T15:35:40;19.10;50.20
939;DHT22;456;53.584;9.968;2023-08-20T15:38:05;19.00;50.90
939;DHT22;456;53.584;9.968;2023-08-20T15:40:31;19.10;50.50
939;DHT22;456;53.584;9.968;2023-08-20T15:42:56;19.10;49.80
939;DHT22;456;53.584;9.968;2023-08-20T15:45:22;19.10;50.20
939;DHT22;456;53.584;9.968;2023-08-20T15:47:48;19.00;51.10
939;DHT22;456;53.584;9.968;2023-08-20T15:50:13;19.10;50.20
939;DHT22;456;53.584;9.968;2023-08-20T15:52:40;19.10;49.80
939;DHT22;456;53.584;9.968;2023-08-20T15:55:06;19.10;50.20
939;DHT22;456;53.584;9.968;2023-08-20T15:57:31;19.00;51.10
939;DHT22;456;53.584;9.968;2023-08-20T15:59:57;19.10;50.10
939;DHT22;456;53.584;9.968;2023-08-20T16:02:23;19.10;49.80
939;DHT22;456;53.584;9.968;2023-08-20T16:04:48;19.00;50.20
939;DHT22;456;53.584;9.968;2023-08-20T16:07:14;19.00;51.10
939;DHT22;456;53.584;9.968;2023-08-20T16:09:39;18.90;51.10
939;DHT22;456;53.584;9.968;2023-08-20T16:12:05;18.90;51.60
939;DHT22;456;53.584;9.968;2023-08-20T16:14:31;18.80;51.90
939;DHT22;456;53.584;9.968;2023-08-20T16:16:56;18.90;52.20
939;DHT22;456;53.584;9.968;2023-08-20T16:19:22;18.90;52.20
939;DHT22;456;53.584;9.968;2023-08-20T16:21:47;18.90;52.10
939;DHT22;456;53.584;9.968;2023-08-20T16:24:13;18.90;52.30
939;DHT22;456;53.584;9.968;2023-08-20T16:26:39;18.90;52.50
939;DHT22;456;53.584;9.968;2023-08-20T16:29:05;18.80;52.50
939;DHT22;456;53.584;9.968;2023-08-20T16:31:30;18.80;52.70
939;DHT22;456;53.584;9.968;2023-08-20T16:33:56;18.80;52.80
939;DHT22;456;53.584;9.968;2023-08-20T16:36:21;18.80;52.80
939;DHT22;456;53.584;9.968;2023-08-20T16:38:47;18.80;52.90
939;DHT22;456;53.584;9.968;2023-08-20T16:41:13;18.80;52.90
939;DHT22;456;53.584;9.968;2023-08-20T16:43:38;18.80;53.00